Time;durP1;ratioP1;P1;durP2;ratioP2;P2;SDS_P1;SDS_P2;PMS_P1;PMS_P2;Temp;Humidity;BMP_temperature;BMP_pressure;BME280_temperature;BME280_humidity;BME280_pressure;Samples;Min_cycle;Max_cycle;Signal;HPM_P1;HPM_P2
2024/02/04 10:26:37;;;;;;;3.13;1.00;;;11.60;99.90;;;;;;2686708;23;20234;-72
2024/02/04 10:29:04;;;;;;;2.37;1.33;;;11.80;99.90;;;;;;4937704;29;20215;-73
2024/02/04 10:31:31;;;;;;;3.67;1.17;;;11.90;99.90;;;;;;4936817;29;20328;-73
2024/02/04 10:33:58;;;;;;;4.50;1.77;;;11.80;99.90;;;;;;4936518;29;20275;-72
2024/02/04 10:36:25;;;;;;;3.77;1.23;;;11.80;99.90;;;;;;4930086;29;20252;-73
2024/02/04 10:38:52;;;;;;;5.40;1.20;;;11.90;99.90;;;;;;4938092;29;20244;-73
2024/02/04 10:41:20;;;;;;;3.53;1.17;;;11.90;99.90;;;;;;4938271;29;20296;-71
2024/02/04 10:43:48;;;;;;;2.70;1.00;;;11.90;99.90;;;;;;4938029;29;20284;-73
2024/02/04 10:46:19;;;;;;;1.20;0.90;;;11.90;99.90;;;;;;4938147;29;20679;-73
2024/02/04 10:48:52;;;;;;;1.20;0.77;;;12.10;99.90;;;;;;4938310;29;20276;-74
2024/02/04 10:51:25;;;;;;;2.87;1.30;;;12.20;99.90;;;;;;4937887;29;20774;-73
2024/02/04 10:53:54;;;;;;;3.87;0.90;;;12.30;99.90;;;;;;4938130;29;20283;-73
2024/02/04 10:56:26;;;;;;;6.70;1.00;;;12.20;99.90;;;;;;4938051;29;20208;-75
2024/02/04 10:58:56;;;;;;;1.67;1.10;;;12.20;99.90;;;;;;4933751;29;20292;-74
2024/02/04 11:01:23;;;;;;;1.13;0.70;;;12.00;99.90;;;;;;4937143;29;20251;-76
2024/02/04 11:03:52;;;;;;;1.83;0.70;;;12.00;99.90;;;;;;4936438;29;20288;-75
2024/02/04 11:06:21;;;;;;;3.57;0.77;;;12.00;99.90;;;;;;4936899;29;20623;-75
2024/02/04 11:08:48;;;;;;;2.70;0.70;;;12.00;99.90;;;;;;4936891;29;20632;-73
2024/02/04 11:11:15;;;;;;;1.50;0.97;;;11.90;99.90;;;;;;4936249;29;20236;-74
2024/02/04 11:13:46;;;;;;;0.73;0.40;;;11.90;99.90;;;;;;4935637;29;20708;-74
2024/02/04 11:16:25;;;;;;;1.03;0.57;;;12.00;99.90;;;;;;4936774;29;20237;-72
2024/02/04 11:19:09;;;;;;;0.73;0.50;;;12.00;99.90;;;;;;4936482;29;20212;-72
2024/02/04 11:21:59;;;;;;;2.73;0.60;;;11.90;99.90;;;;;;4936747;29;20291;-73
2024/02/04 11:24:43;;;;;;;0.80;0.40;;;12.00;99.90;;;;;;4935861;29;20233;-75
2024/02/04 11:27:10;;;;;;;5.07;0.70;;;12.10;99.90;;;;;;4937001;29;20217;-74
2024/02/04 11:29:37;;;;;;;0.90;0.40;;;12.10;99.90;;;;;;4937344;29;20205;-73
2024/02/04 11:32:07;;;;;;;2.20;0.60;;;12.00;99.90;;;;;;4937482;29;20248;-70
2024/02/04 11:34:34;;;;;;;0.60;0.40;;;12.00;99.90;;;;;;4937315;29;20225;-75
2024/02/04 11:37:01;;;;;;;1.70;0.60;;;12.00;99.90;;;;;;4937169;29;20232;-73
2024/02/04 11:39:28;;;;;;;2.03;0.37;;;12.00;99.90;;;;;;4937522;29;20221;-74
2024/02/04 11:41:55;;;;;;;2.70;0.50;;;12.10;99.90;;;;;;4937323;29;20244;-75
2024/02/04 11:44:23;;;;;;;0.80;0.50;;;12.10;99.90;;;;;;4937107;29;20224;-76
2024/02/04 11:46:50;;;;;;;0.90;0.50;;;12.10;99.90;;;;;;4937088;29;20735;-74
2024/02/04 11:49:19;;;;;;;0.60;0.30;;;12.10;99.90;;;;;;4936722;29;20612;-72
2024/02/04 11:51:48;;;;;;;0.90;0.67;;;12.10;99.90;;;;;;4936819;29;20237;-70
2024/02/04 11:54:18;;;;;;;1.67;0.57;;;12.10;99.90;;;;;;4937074;29;20221;-74
2024/02/04 11:56:45;;;;;;;1.70;0.40;;;12.10;99.90;;;;;;4937022;29;20207;-74
2024/02/04 11:59:13;;;;;;;1.37;0.47;;;12.00;99.90;;;;;;4937507;29;20240;-75
2024/02/04 12:01:41;;;;;;;0.73;0.50;;;12.00;99.90;;;;;;4936944;29;20213;-74
2024/02/04 12:04:12;;;;;;;0.40;0.30;;;12.20;99.90;;;;;;4933916;29;20766;-78
2024/02/04 12:06:41;;;;;;;0.87;0.60;;;12.20;99.90;;;;;;4935597;29;20563;-75
2024/02/04 12:09:09;;;;;;;1.17;0.73;;;12.20;99.90;;;;;;4935888;29;20340;-74
2024/02/04 12:11:37;;;;;;;1.17;0.50;;;12.20;99.90;;;;;;4935002;29;20283;-74
2024/02/04 12:14:06;;;;;;;2.47;0.60;;;12.20;99.90;;;;;;4935091;29;20235;-73
2024/02/04 12:16:35;;;;;;;0.90;0.60;;;12.10;99.90;;;;;;4934460;29;20217;-74
2024/02/04 12:19:03;;;;;;;0.97;0.70;;;12.10;99.90;;;;;;4935120;29;20305;-78
2024/02/04 12:21:30;;;;;;;0.70;0.50;;;12.10;99.90;;;;;;4935428;29;20208;-73
2024/02/04 12:23:59;;;;;;;2.63;0.67;;;12.10;99.90;;;;;;4935417;29;20260;-73
2024/02/04 12:26:26;;;;;;;0.80;0.40;;;12.20;99.90;;;;;;4935253;29;20217;-72
2024/02/04 12:28:53;;;;;;;0.97;0.50;;;12.20;99.90;;;;;;4934974;29;20236;-74
2024/02/04 12:31:21;;;;;;;0.93;0.60;;;12.20;99.90;;;;;;4935293;29;20602;-74
2024/02/04 12:33:57;;;;;;;1.97;0.50;;;12.20;99.90;;;;;;4934773;29;20228;-72
2024/02/04 12:36:27;;;;;;;0.97;0.50;;;12.20;99.90;;;;;;4935466;29;20205;-69
2024/02/04 12:38:55;;;;;;;1.03;0.60;;;12.10;99.90;;;;;;4935638;29;20216;-69
2024/02/04 12:41:24;;;;;;;0.50;0.40;;;12.20;99.90;;;;;;4936011;29;20512;-70
2024/02/04 12:43:52;;;;;;;0.77;0.47;;;12.10;99.90;;;;;;4935854;29;20324;-70
2024/02/04 12:46:19;;;;;;;0.50;0.40;;;12.20;99.90;;;;;;4936093;29;20563;-70
2024/02/04 12:48:46;;;;;;;0.97;0.40;;;12.20;99.90;;;;;;4935814;29;20241;-70
2024/02/04 12:51:23;;;;;;;2.43;0.60;;;12.00;99.90;;;;;;4935887;29;20276;-71
2024/02/04 12:53:50;;;;;;;0.50;0.50;;;12.00;99.90;;;;;;4935828;29;20236;-70
2024/02/04 12:56:17;;;;;;;1.20;0.47;;;12.10;99.90;;;;;;4935836;29;20283;-70
2024/02/04 12:58:45;;;;;;;1.60;0.60;;;12.10;99.90;;;;;;4935963;29;20248;-70
2024/02/04 13:01:13;;;;;;;0.90;0.60;;;12.10;99.90;;;;;;4935721;29;20236;-70
2024/02/04 13:03:40;;;;;;;1.13;0.70;;;12.00;99.90;;;;;;4935645;29;20803;-70
2024/02/04 13:06:08;;;;;;;2.37;0.70;;;12.00;99.90;;;;;;4935641;29;20205;-70
2024/02/04 13:08:35;;;;;;;0.90;0.60;;;12.00;99.90;;;;;;4935523;29;20205;-71
2024/02/04 13:11:02;;;;;;;1.00;0.40;;;12.00;99.90;;;;;;4935263;29;20264;-69
2024/02/04 13:13:29;;;;;;;1.40;0.70;;;11.90;99.90;;;;;;4935413;29;20236;-72
2024/02/04 13:15:58;;;;;;;1.43;0.70;;;12.00;99.90;;;;;;4935743;29;20271;-70
2024/02/04 13:18:25;;;;;;;1.20;0.50;;;12.00;99.90;;;;;;4935900;29;20213;-71
2024/02/04 13:20:52;;;;;;;0.50;0.40;;;12.00;99.90;;;;;;4935584;29;20271;-72
2024/02/04 13:23:19;;;;;;;1.10;0.50;;;11.90;99.90;;;;;;4935533;29;20292;-74
2024/02/04 13:25:47;;;;;;;2.50;0.60;;;12.00;99.90;;;;;;4935708;29;20263;-70
2024/02/04 13:28:14;;;;;;;1.00;0.57;;;12.00;99.90;;;;;;4935118;29;20224;-74
2024/02/04 13:30:41;;;;;;;0.70;0.43;;;11.90;99.90;;;;;;4935898;29;20264;-69
2024/02/04 13:33:09;;;;;;;0.50;0.50;;;11.80;99.90;;;;;;4935421;29;20212;-69
2024/02/04 13:35:36;;;;;;;0.47;0.30;;;11.70;99.90;;;;;;4935522;29;20205;-70
2024/02/04 13:38:03;;;;;;;0.60;0.60;;;11.70;99.90;;;;;;4935527;29;20209;-69
2024/02/04 13:40:30;;;;;;;0.37;0.30;;;11.60;99.90;;;;;;4935651;29;20209;-69
2024/02/04 13:42:57;;;;;;;0.80;0.60;;;11.70;99.90;;;;;;4935258;29;20660;-71
2024/02/04 13:45:24;;;;;;;0.50;0.50;;;11.70;99.90;;;;;;4935431;29;20240;-71
2024/02/04 13:47:51;;;;;;;0.87;0.60;;;11.70;99.90;;;;;;4934918;29;20272;-71
2024/02/04 13:50:20;;;;;;;1.00;0.70;;;11.60;99.90;;;;;;4935639;29;20204;-72
2024/02/04 13:52:47;;;;;;;0.50;0.37;;;11.70;99.90;;;;;;4935676;29;20287;-70
2024/02/04 13:55:14;;;;;;;0.40;0.30;;;11.60;99.90;;;;;;4935592;29;20260;-70
2024/02/04 13:57:41;;;;;;;0.50;0.50;;;11.50;99.90;;;;;;4935527;29;20263;-70
2024/02/04 14:00:09;;;;;;;0.70;0.50;;;11.60;99.90;;;;;;4935404;29;20383;-69
2024/02/04 14:02:36;;;;;;;0.77;0.53;;;11.60;99.90;;;;;;4935106;29;20212;-71
2024/02/04 14:05:03;;;;;;;2.83;0.70;;;11.60;99.90;;;;;;4935242;29;20283;-72
2024/02/04 14:07:31;;;;;;;2.50;0.60;;;11.60;99.90;;;;;;4935508;29;20217;-73
2024/02/04 14:09:58;;;;;;;1.27;0.60;;;11.50;99.90;;;;;;4935700;29;20721;-72
2024/02/04 14:12:25;;;;;;;1.00;0.40;;;11.50;99.90;;;;;;4935416;29;20268;-73
2024/02/04 14:14:52;;;;;;;2.63;0.83;;;11.60;99.90;;;;;;4935049;29;20299;-73
2024/02/04 14:17:20;;;;;;;1.23;0.70;;;11.60;99.90;;;;;;4935335;29;20224;-74
2024/02/04 14:19:49;;;;;;;0.97;0.83;;;11.50;99.90;;;;;;4935164;29;20295;-74
2024/02/04 14:22:16;;;;;;;0.80;0.60;;;11.40;99.90;;;;;;4935280;29;20213;-73
2024/02/04 14:24:46;;;;;;;1.47;0.80;;;11.40;99.90;;;;;;4935143;29;20228;-73
2024/02/04 14:27:13;;;;;;;4.70;0.60;;;11.40;99.90;;;;;;4934611;29;20267;-74
2024/02/04 14:29:39;;;;;;;1.37;0.70;;;11.40;99.90;;;;;;4935037;29;20255;-73
2024/02/04 14:32:08;;;;;;;0.90;0.60;;;11.40;99.90;;;;;;4934585;29;20327;-73
2024/02/04 14:34:35;;;;;;;1.43;0.70;;;11.40;99.90;;;;;;4934862;29;20276;-73
2024/02/04 14:37:02;;;;;;;2.53;0.77;;;11.40;99.90;;;;;;4935236;29;20306;-73
2024/02/04 14:39:31;;;;;;;1.93;0.73;;;11.40;99.90;;;;;;4935166;29;20244;-74
2024/02/04 14:41:59;;;;;;;5.10;0.83;;;11.40;99.90;;;;;;4934896;29;20264;-70
2024/02/04 14:44:26;;;;;;;1.63;0.90;;;11.30;99.90;;;;;;4935078;29;20324;-70
2024/02/04 14:46:53;;;;;;;3.00;0.77;;;11.40;99.90;;;;;;4934823;29;20244;-70
2024/02/04 14:49:20;;;;;;;2.83;0.70;;;11.30;99.90;;;;;;4935025;29;20671;-70
2024/02/04 14:51:47;;;;;;;1.43;0.60;;;11.40;99.90;;;;;;4935209;29;20295;-70
2024/02/04 14:54:14;;;;;;;1.30;0.60;;;11.30;99.90;;;;;;4935087;29;20628;-70
2024/02/04 14:56:41;;;;;;;1.27;0.50;;;11.30;99.90;;;;;;4935009;29;20244;-70
2024/02/04 14:59:12;;;;;;;2.57;0.80;;;11.30;99.90;;;;;;4935608;29;20731;-70
2024/02/04 15:01:39;;;;;;;2.20;0.80;;;11.20;99.90;;;;;;4938117;29;20300;-69
2024/02/04 15:04:06;;;;;;;1.43;0.80;;;11.30;99.90;;;;;;4938329;29;20316;-70
2024/02/04 15:06:32;;;;;;;5.70;0.90;;;11.30;99.90;;;;;;4938179;29;20679;-69
2024/02/04 15:09:00;;;;;;;5.50;0.90;;;11.40;99.90;;;;;;4938052;29;20255;-70
2024/02/04 15:11:29;;;;;;;4.60;1.00;;;11.30;99.90;;;;;;4938118;29;20244;-70
2024/02/04 15:13:56;;;;;;;1.17;0.70;;;11.30;99.90;;;;;;4938029;29;20236;-70
2024/02/04 15:16:25;;;;;;;3.93;0.97;;;11.40;99.90;;;;;;4938423;29;20255;-71
2024/02/04 15:18:53;;;;;;;4.73;1.27;;;11.40;99.90;;;;;;4938068;29;20298;-70
2024/02/04 15:21:20;;;;;;;1.20;0.80;;;11.40;99.90;;;;;;4937620;29;20244;-71
2024/02/04 15:23:48;;;;;;;1.60;0.67;;;11.50;99.90;;;;;;4938157;29;20296;-70
2024/02/04 15:26:16;;;;;;;2.00;0.93;;;11.40;99.90;;;;;;4937702;29;20575;-70
2024/02/04 15:28:45;;;;;;;1.87;0.87;;;11.30;99.90;;;;;;4937973;29;20268;-70
2024/02/04 15:31:12;;;;;;;1.93;0.80;;;11.40;99.90;;;;;;4937639;29;20282;-70
2024/02/04 15:33:41;;;;;;;3.83;1.00;;;11.40;99.90;;;;;;4937529;29;20229;-70
2024/02/04 15:36:09;;;;;;;1.97;0.93;;;11.40;99.90;;;;;;4937818;29;20209;-70
2024/02/04 15:38:36;;;;;;;5.87;0.83;;;11.40;99.90;;;;;;4937773;29;20295;-70
2024/02/04 15:41:03;;;;;;;3.73;1.00;;;11.50;99.90;;;;;;4937435;29;20723;-70
2024/02/04 15:43:30;;;;;;;2.40;0.80;;;11.40;99.90;;;;;;4937420;29;20284;-70
2024/02/04 15:46:00;;;;;;;2.60;1.17;;;11.40;99.90;;;;;;4937677;29;20209;-70
2024/02/04 15:48:31;;;;;;;1.27;0.90;;;11.40;99.90;;;;;;4937542;29;20680;-70
2024/02/04 15:51:00;;;;;;;0.80;0.60;;;11.40;99.90;;;;;;4937300;29;20261;-69
2024/02/04 15:53:28;;;;;;;1.37;1.00;;;11.30;99.90;;;;;;4937271;29;20315;-69
2024/02/04 15:55:56;;;;;;;2.77;0.70;;;11.30;99.90;;;;;;4937564;29;20212;-69
2024/02/04 15:58:26;;;;;;;1.23;0.80;;;11.30;99.90;;;;;;4937677;29;20209;-69
2024/02/04 16:00:54;;;;;;;3.40;1.30;;;11.30;99.90;;;;;;4937315;29;20252;-69
2024/02/04 16:03:22;;;;;;;4.23;0.97;;;11.20;99.90;;;;;;4937280;29;20319;-69
2024/02/04 16:05:49;;;;;;;4.70;1.10;;;11.20;99.90;;;;;;4937299;29;20209;-69
2024/02/04 16:08:18;;;;;;;3.40;1.93;;;11.30;99.90;;;;;;4937173;29;20208;-69
2024/02/04 16:10:46;;;;;;;4.73;1.27;;;11.30;99.90;;;;;;4936669;29;20292;-69
2024/02/04 16:13:14;;;;;;;6.17;1.03;;;11.30;99.90;;;;;;4936646;29;20708;-68
2024/02/04 16:15:45;;;;;;;2.30;0.90;;;11.40;99.90;;;;;;4937045;29;20357;-69
2024/02/04 16:18:13;;;;;;;1.57;0.80;;;11.40;99.90;;;;;;4936745;29;20205;-68
2024/02/04 16:20:40;;;;;;;3.77;0.90;;;11.30;99.90;;;;;;4934835;29;20256;-69
2024/02/04 16:23:08;;;;;;;2.30;0.87;;;11.40;99.90;;;;;;4926324;29;20666;-72
2024/02/04 16:25:36;;;;;;;3.40;1.20;;;11.40;99.90;;;;;;4934088;29;20652;-69
2024/02/04 16:28:04;;;;;;;2.10;1.20;;;11.40;99.90;;;;;;4935034;29;20633;-70
2024/02/04 16:30:31;;;;;;;5.17;1.10;;;11.40;99.90;;;;;;4934200;29;20743;-70
2024/02/04 16:32:58;;;;;;;2.40;0.80;;;11.40;99.90;;;;;;4932027;29;20237;-70
2024/02/04 16:35:25;;;;;;;3.93;1.30;;;11.40;99.90;;;;;;4936166;29;20313;-73
2024/02/04 16:37:52;;;;;;;3.37;1.00;;;11.40;99.90;;;;;;4930575;29;20220;-74
2024/02/04 16:40:18;;;;;;;6.63;1.60;;;11.30;99.90;;;;;;4934961;29;20276;-74
2024/02/04 16:42:47;;;;;;;1.70;0.63;;;11.30;99.90;;;;;;4934256;29;20240;-74
2024/02/04 16:45:14;;;;;;;5.73;1.73;;;11.30;99.90;;;;;;4934939;29;20245;-73
2024/02/04 16:47:41;;;;;;;1.83;0.97;;;11.30;99.90;;;;;;4935142;29;20633;-72
2024/02/04 16:50:09;;;;;;;1.30;0.93;;;11.40;99.90;;;;;;4935033;29;20232;-74
2024/02/04 16:52:35;;;;;;;5.67;1.00;;;11.40;99.90;;;;;;4935392;29;20236;-73
2024/02/04 16:55:04;;;;;;;2.57;1.20;;;11.40;99.90;;;;;;4933588;29;20225;-74
2024/02/04 16:57:32;;;;;;;2.13;0.80;;;11.40;99.90;;;;;;4934812;29;20213;-73
2024/02/04 17:00:00;;;;;;;4.90;1.00;;;11.40;99.90;;;;;;4934429;29;20232;-73
2024/02/04 17:02:27;;;;;;;1.57;0.80;;;11.40;99.90;;;;;;4934699;29;20212;-73
2024/02/04 17:04:55;;;;;;;4.90;1.03;;;11.30;99.90;;;;;;4934125;29;20319;-73
2024/02/04 17:07:24;;;;;;;1.50;0.90;;;11.30;99.90;;;;;;4933940;29;20248;-75
2024/02/04 17:09:52;;;;;;;1.80;1.00;;;11.30;99.90;;;;;;4934594;29;20208;-72
2024/02/04 17:12:20;;;;;;;1.37;0.60;;;11.30;99.90;;;;;;4934558;29;20245;-73
2024/02/04 17:14:47;;;;;;;4.60;2.20;;;11.30;99.90;;;;;;4933073;29;20260;-74
2024/02/04 17:17:17;;;;;;;4.53;1.00;;;11.30;99.90;;;;;;4933356;29;20240;-73
2024/02/04 17:19:51;;;;;;;4.00;0.73;;;11.30;99.90;;;;;;4937370;29;20548;-73
2024/02/04 17:22:22;;;;;;;3.13;0.77;;;11.30;99.90;;;;;;4952600;28;20751;-73
2024/02/04 17:24:50;;;;;;;3.83;1.40;;;11.30;99.90;;;;;;4937780;29;20228;-74
2024/02/04 17:27:18;;;;;;;4.50;0.97;;;11.20;99.90;;;;;;4934165;29;20227;-73
2024/02/04 17:29:46;;;;;;;2.70;0.80;;;11.20;99.90;;;;;;4934209;29;20217;-74
2024/02/04 17:32:15;;;;;;;5.37;1.00;;;11.20;99.90;;;;;;4933755;29;20248;-74
2024/02/04 17:34:43;;;;;;;4.33;1.70;;;11.20;99.90;;;;;;4933664;29;20256;-72
2024/02/04 17:37:10;;;;;;;3.37;0.90;;;11.20;99.90;;;;;;4933025;29;20248;-73
2024/02/04 17:39:40;;;;;;;5.83;1.83;;;11.20;99.90;;;;;;4933790;29;20209;-73
2024/02/04 17:42:10;;;;;;;4.53;1.03;;;11.30;99.90;;;;;;4933594;29;20628;-72
2024/02/04 17:44:37;;;;;;;2.73;1.20;;;11.30;99.90;;;;;;4933670;29;20225;-73
2024/02/04 17:47:04;;;;;;;2.80;0.93;;;11.30;99.90;;;;;;4932340;29;20738;-73
2024/02/04 17:49:32;;;;;;;4.73;1.30;;;11.30;99.90;;;;;;4933131;29;20282;-73
2024/02/04 17:51:59;;;;;;;3.60;1.47;;;11.20;99.90;;;;;;4930670;29;20688;-72
2024/02/04 17:54:27;;;;;;;3.37;1.00;;;11.20;99.90;;;;;;4932534;29;20628;-71
2024/02/04 17:56:54;;;;;;;7.10;1.30;;;11.10;99.90;;;;;;4933849;29;20248;-76
2024/02/04 17:59:21;;;;;;;2.73;0.90;;;11.20;99.90;;;;;;4934036;29;20240;-74
2024/02/04 18:01:48;;;;;;;3.90;1.20;;;11.20;99.90;;;;;;4933745;29;20253;-72
2024/02/04 18:04:16;;;;;;;4.63;0.93;;;11.10;99.90;;;;;;4932955;29;20224;-74
2024/02/04 18:06:44;;;;;;;6.03;1.23;;;11.20;99.90;;;;;;4933007;29;20236;-73
2024/02/04 18:09:13;;;;;;;4.17;1.50;;;11.20;99.90;;;;;;4932461;29;20625;-73
2024/02/04 18:11:40;;;;;;;2.07;1.07;;;11.10;99.90;;;;;;4933329;29;20204;-73
2024/02/04 18:14:07;;;;;;;4.43;1.33;;;11.10;99.90;;;;;;4933309;29;20323;-73
2024/02/04 18:16:34;;;;;;;3.37;1.37;;;11.20;99.90;;;;;;4934103;29;20288;-73
2024/02/04 18:19:02;;;;;;;6.40;1.47;;;11.20;99.90;;;;;;4933722;29;20236;-74
2024/02/04 18:21:29;;;;;;;2.00;1.00;;;11.20;99.90;;;;;;4933844;29;20217;-73
2024/02/04 18:23:59;;;;;;;7.77;1.37;;;11.20;99.90;;;;;;4934018;29;20615;-75
2024/02/04 18:26:27;;;;;;;7.43;1.13;;;11.20;99.90;;;;;;4933892;29;20576;-74
2024/02/04 18:28:56;;;;;;;4.17;1.10;;;11.20;99.90;;;;;;4927715;29;20303;-74
2024/02/04 18:31:24;;;;;;;3.37;1.30;;;11.20;99.90;;;;;;4933989;29;20687;-75
2024/02/04 18:33:52;;;;;;;3.37;1.20;;;11.20;99.90;;;;;;4944049;29;20322;-74
2024/02/04 18:36:21;;;;;;;4.37;1.30;;;11.20;99.90;;;;;;4945518;29;20594;-75
2024/02/04 18:38:49;;;;;;;4.40;1.03;;;11.20;99.90;;;;;;4943456;29;20208;-72
2024/02/04 18:41:18;;;;;;;4.00;1.47;;;11.20;99.90;;;;;;4939847;29;20235;-72
2024/02/04 18:43:46;;;;;;;5.77;1.17;;;11.10;99.90;;;;;;4944562;29;20584;-72
2024/02/04 18:46:13;;;;;;;3.67;1.10;;;11.20;99.90;;;;;;4945477;29;20209;-72
2024/02/04 18:48:40;;;;;;;6.30;1.27;;;11.10;99.90;;;;;;4936286;29;20241;-72
2024/02/04 18:51:07;;;;;;;4.37;1.00;;;11.20;99.90;;;;;;4936501;29;20223;-72
2024/02/04 18:53:35;;;;;;;3.13;1.40;;;11.10;99.90;;;;;;4936361;29;20275;-72
2024/02/04 18:56:05;;;;;;;4.03;1.23;;;11.10;99.90;;;;;;4936206;29;20213;-72
2024/02/04 18:58:33;;;;;;;2.63;1.20;;;11.20;99.90;;;;;;4931896;29;20228;-72
2024/02/04 19:01:01;;;;;;;4.33;1.17;;;11.20;99.90;;;;;;4928089;29;20210;-72
2024/02/04 19:03:28;;;;;;;4.80;1.20;;;11.10;99.90;;;;;;4946992;29;20224;-72
2024/02/04 19:05:55;;;;;;;7.30;1.83;;;11.10;99.90;;;;;;4936730;29;20240;-72
2024/02/04 19:08:22;;;;;;;4.70;1.37;;;11.10;99.90;;;;;;4936944;29;20239;-72
2024/02/04 19:10:50;;;;;;;7.00;1.23;;;11.10;99.90;;;;;;4936420;29;20232;-72
2024/02/04 19:13:17;;;;;;;7.07;1.20;;;11.20;99.90;;;;;;4935615;29;20244;-72
2024/02/04 19:15:45;;;;;;;4.77;1.47;;;11.20;99.90;;;;;;4936282;29;20236;-72
2024/02/04 19:18:12;;;;;;;4.83;1.40;;;11.20;99.90;;;;;;4936977;29;20649;-72
2024/02/04 19:20:39;;;;;;;2.40;1.00;;;11.10;99.90;;;;;;4936250;29;20300;-73
2024/02/04 19:23:07;;;;;;;5.10;1.27;;;11.10;99.90;;;;;;4934713;29;20207;-73
2024/02/04 19:25:33;;;;;;;3.40;1.20;;;11.00;99.90;;;;;;4945419;29;20330;-73
2024/02/04 19:28:01;;;;;;;6.27;1.43;;;10.90;99.90;;;;;;4937596;29;20679;-74
2024/02/04 19:30:29;;;;;;;6.63;1.33;;;10.90;99.90;;;;;;4930025;29;20204;-73
2024/02/04 19:32:57;;;;;;;2.53;1.23;;;10.90;99.90;;;;;;4946997;29;20231;-69
2024/02/04 19:35:25;;;;;;;4.40;1.60;;;10.90;99.90;;;;;;4929767;29;20249;-70
2024/02/04 19:37:53;;;;;;;4.70;2.03;;;10.90;99.90;;;;;;4926410;29;20236;-72
2024/02/04 19:40:21;;;;;;;6.53;1.93;;;10.90;99.90;;;;;;4936722;29;20241;-72
2024/02/04 19:42:49;;;;;;;3.40;1.03;;;10.90;99.90;;;;;;4948697;29;20617;-74
2024/02/04 19:45:19;;;;;;;4.80;1.17;;;10.90;99.90;;;;;;4935107;28;20205;-74
2024/02/04 19:47:46;;;;;;;4.00;1.20;;;10.80;99.90;;;;;;4936419;29;20296;-75
2024/02/04 19:50:14;;;;;;;4.30;1.37;;;10.80;99.90;;;;;;4933857;29;20259;-74
2024/02/04 19:52:41;;;;;;;4.17;1.37;;;10.80;99.90;;;;;;4937410;29;20318;-73
2024/02/04 19:55:08;;;;;;;5.87;1.50;;;10.80;99.90;;;;;;4936023;29;20268;-72
2024/02/04 19:57:37;;;;;;;9.00;1.87;;;10.80;99.90;;;;;;4937408;29;20232;-72
2024/02/04 20:00:06;;;;;;;10.00;1.63;;;10.80;99.90;;;;;;4934358;29;20225;-74
2024/02/04 20:02:33;;;;;;;3.33;1.53;;;10.70;99.90;;;;;;4935778;29;20284;-74
2024/02/04 20:05:00;;;;;;;5.07;1.60;;;10.70;99.90;;;;;;4936182;29;20225;-75
2024/02/04 20:07:29;;;;;;;6.43;1.30;;;10.70;99.90;;;;;;4936071;29;20240;-74
2024/02/04 20:09:56;;;;;;;4.67;1.30;;;10.70;99.90;;;;;;4936701;29;20308;-72
2024/02/04 20:12:25;;;;;;;4.33;1.50;;;10.70;99.90;;;;;;4935148;29;20296;-72
2024/02/04 20:14:51;;;;;;;5.30;1.50;;;10.80;99.90;;;;;;4938486;29;20229;-72
2024/02/04 20:17:18;;;;;;;2.60;1.10;;;10.80;99.90;;;;;;4937433;29;20248;-72
2024/02/04 20:19:45;;;;;;;5.03;1.30;;;10.80;99.90;;;;;;4939003;29;20319;-72
2024/02/04 20:22:14;;;;;;;6.00;1.30;;;10.80;99.90;;;;;;4938084;29;20921;-72
2024/02/04 20:24:42;;;;;;;2.90;1.33;;;10.80;99.90;;;;;;4939946;29;20239;-72
2024/02/04 20:27:09;;;;;;;4.90;2.17;;;10.80;99.90;;;;;;4938808;29;20724;-73
2024/02/04 20:29:38;;;;;;;7.33;1.60;;;10.80;99.90;;;;;;4939555;29;20687;-72
2024/02/04 20:32:06;;;;;;;5.97;1.90;;;10.80;99.90;;;;;;4938333;29;20234;-73
2024/02/04 20:34:33;;;;;;;5.73;1.90;;;10.80;99.90;;;;;;4939343;29;20741;-72
2024/02/04 20:36:59;;;;;;;4.90;1.53;;;10.80;99.90;;;;;;4947416;29;20239;-72
2024/02/04 20:39:27;;;;;;;5.03;1.70;;;10.70;99.90;;;;;;4938612;29;20240;-72
2024/02/04 20:41:58;;;;;;;4.73;1.40;;;10.70;99.90;;;;;;4935489;29;20209;-73
2024/02/04 20:44:25;;;;;;;4.77;1.37;;;10.60;99.90;;;;;;4935821;29;20256;-73
2024/02/04 20:46:52;;;;;;;7.43;1.73;;;10.60;99.90;;;;;;4948023;29;20208;-73
2024/02/04 20:49:19;;;;;;;4.20;1.43;;;10.60;99.90;;;;;;4954496;29;20199;-73
2024/02/04 20:51:46;;;;;;;4.40;1.63;;;10.60;99.90;;;;;;4955024;29;20300;-73
2024/02/04 20:54:13;;;;;;;7.80;1.60;;;10.70;99.90;;;;;;4953893;29;20319;-73
2024/02/04 20:56:40;;;;;;;9.17;1.47;;;10.60;99.90;;;;;;4954667;28;20240;-73
2024/02/04 20:59:08;;;;;;;7.10;1.60;;;10.70;99.90;;;;;;4948124;29;20691;-73
2024/02/04 21:01:35;;;;;;;10.10;2.07;;;10.70;99.90;;;;;;4947922;29;20247;-73
2024/02/04 21:04:02;;;;;;;7.23;1.60;;;10.70;99.90;;;;;;4953627;29;20228;-73
2024/02/04 21:06:31;;;;;;;4.23;1.43;;;10.70;99.90;;;;;;4953193;29;20204;-73
2024/02/04 21:08:59;;;;;;;8.57;1.63;;;10.70;99.90;;;;;;4931444;29;20259;-73
2024/02/04 21:11:27;;;;;;;8.47;1.80;;;10.70;99.90;;;;;;4952967;28;20246;-73
2024/02/04 21:13:54;;;;;;;5.70;1.40;;;10.70;99.90;;;;;;4953913;29;20331;-73
2024/02/04 21:16:23;;;;;;;6.07;1.57;;;10.70;99.90;;;;;;4952807;29;20243;-73
2024/02/04 21:18:50;;;;;;;8.93;1.90;;;10.70;99.90;;;;;;4954057;28;20208;-73
2024/02/04 21:21:18;;;;;;;7.40;1.70;;;10.70;99.90;;;;;;4953521;28;20239;-73
2024/02/04 21:23:45;;;;;;;7.00;1.57;;;10.70;99.90;;;;;;4954652;29;20260;-72
2024/02/04 21:26:12;;;;;;;6.23;1.60;;;10.70;99.90;;;;;;4954148;29;20305;-73
2024/02/04 21:28:40;;;;;;;16.40;1.80;;;10.70;99.90;;;;;;4954332;29;20714;-73
2024/02/04 21:31:08;;;;;;;3.90;1.30;;;10.70;99.90;;;;;;4953811;28;20212;-73
2024/02/04 21:33:36;;;;;;;5.13;1.00;;;10.70;99.90;;;;;;4954364;28;20240;-73
2024/02/04 21:36:09;;;;;;;7.13;1.30;;;10.70;99.90;;;;;;4953325;29;20284;-73
2024/02/04 21:38:36;;;;;;;8.33;1.40;;;10.80;99.90;;;;;;4944520;29;20240;-73
2024/02/04 21:41:03;;;;;;;4.07;1.53;;;10.80;99.90;;;;;;4935110;29;20244;-73
2024/02/04 21:43:30;;;;;;;2.93;1.30;;;10.80;99.90;;;;;;4935421;29;20236;-73
2024/02/04 21:45:57;;;;;;;7.00;3.00;;;10.90;99.90;;;;;;4935857;29;20236;-73
2024/02/04 21:48:24;;;;;;;3.70;1.10;;;10.80;99.90;;;;;;4946179;29;20258;-73
2024/02/04 21:50:52;;;;;;;6.97;1.70;;;10.80;99.90;;;;;;4954459;29;20242;-73
2024/02/04 21:53:19;;;;;;;8.63;1.67;;;10.80;99.90;;;;;;4943456;28;20272;-73
2024/02/04 21:55:46;;;;;;;4.80;1.43;;;10.80;99.90;;;;;;4935552;29;20209;-73
2024/02/04 21:58:13;;;;;;;10.43;3.37;;;10.80;99.90;;;;;;4946713;29;20204;-72
2024/02/04 22:00:41;;;;;;;6.80;1.93;;;10.90;99.90;;;;;;4935927;29;20201;-73
2024/02/04 22:03:09;;;;;;;5.80;1.43;;;10.90;99.90;;;;;;4935088;29;20304;-73
2024/02/04 22:05:37;;;;;;;7.10;2.10;;;11.00;99.90;;;;;;4934600;29;20212;-73
2024/02/04 22:08:07;;;;;;;6.30;1.70;;;10.90;99.90;;;;;;4934992;29;20218;-73
2024/02/04 22:10:34;;;;;;;7.03;1.57;;;10.90;99.90;;;;;;4935968;29;20211;-72
2024/02/04 22:13:01;;;;;;;5.77;1.37;;;11.00;99.90;;;;;;4940194;29;20236;-72
2024/02/04 22:15:28;;;;;;;7.87;1.70;;;11.00;99.90;;;;;;4939530;29;20616;-72
2024/02/04 22:17:55;;;;;;;13.27;3.83;;;11.00;99.90;;;;;;4939909;29;20247;-72
2024/02/04 22:20:22;;;;;;;8.27;1.57;;;11.00;99.90;;;;;;4939224;29;20255;-72
2024/02/04 22:22:49;;;;;;;3.53;1.20;;;11.00;99.90;;;;;;4938330;29;20209;-73
